Latest Weather Observations for Tasman Island

IDT60801

Issued at 8:31 pm EDT Tuesday 9 February 2016 (issued every 30 minutes, with the page automatically refreshed every 10 minutes)

About weather observations | Map of weather stations | Latest weather observations for TAS | Other Formats
Station Details ID: 094155 Name: TASMAN ISLAND Lat: -43.24 Lon: 148.00 Height: 240.0 m
Data from the previous 72 hours. | See also: Recent months at Tasman Island
Date/Time
EDT
Temp
°C
App
Temp
°C
Dew
Point
Rel
Hum
%
Delta-T
°C
Wind Press
QNH
hPa
Press
MSL
hPa
Rain
since 9 am
mm
Dir
 
Spd
km/h
Gust
km/h
Spd
kts
Gust
kts
09/08:30pm 15.3 12.2 13.3 88 1.1 SSW 22 35 12 19 1015.9 1015.6 0.0
09/08:00pm 16.3 14.2 13.6 84 1.5 SSW 17 33 9 18 1015.8 1015.5 0.0
09/07:30pm 18.1 18.7 15.9 87 1.3 NNE 7 9 4 5 1015.7 1015.4 0.0
09/07:00pm 18.2 17.8 16.2 88 1.2 N 13 24 7 13 1015.7 1015.4 0.0
09/06:30pm 18.8 16.9 16.6 87 1.3 N 22 30 12 16 1015.6 1015.3 0.0
09/06:00pm 18.6 14.5 16.0 85 1.6 N 32 43 17 23 1015.7 1015.4 0.0
09/05:30pm 18.8 15.1 15.1 79 2.2 NNE 28 37 15 20 1015.9 1015.6 0.0
09/05:00pm 19.2 14.7 14.9 76 2.5 NNE 32 39 17 21 1016.5 1016.2 0.0
09/04:30pm 19.0 16.1 15.1 78 2.3 NNE 24 41 13 22 1017.1 1016.8 0.0
09/04:00pm 18.7 16.5 14.4 76 2.5 NNE 19 33 10 18 1017.5 1017.2 0.0
09/03:30pm 18.2 15.3 14.1 77 2.4 NE 22 44 12 24 1017.9 1017.7 0.0
09/03:00pm 18.0 15.3 13.5 75 2.6 NNE 20 35 11 19 1018.3 1018.1 0.0
09/02:30pm 17.9 15.2 12.8 72 2.9 NNE 19 35 10 19 1018.7 1018.5 0.0
09/02:00pm 18.8 14.4 11.6 63 4.0 NNE 26 35 14 19 1019.1 1018.8 0.0
09/01:30pm 19.3 16.1 11.8 62 4.2 NNE 20 28 11 15 1019.4 1019.1 0.0
09/01:00pm 18.5 15.8 11.8 65 3.7 NE 17 28 9 15 1019.8 1019.5 0.0
09/12:30pm 17.5 15.7 12.0 70 3.1 E 13 20 7 11 1020.2 1019.9 0.0
09/12:00pm 17.9 16.4 11.9 68 3.3 E 11 17 6 9 1020.6 1020.3 0.0
09/11:30am 18.0 17.0 12.2 69 3.2 E 9 15 5 8 1020.9 1020.6 0.0
09/11:00am 18.4 17.9 12.6 69 3.3 ESE 7 13 4 7 1021.0 1020.7 0.0
09/10:30am 17.2 16.4 11.7 70 3.0 WSW 7 13 4 7 1021.2 1021.0 0.0
09/10:00am 17.0 16.1 11.3 69 3.1 SW 7 13 4 7 1021.5 1021.3 0.0
09/09:30am 16.6 15.4 11.5 72 2.8 WSW 9 15 5 8 1021.7 1021.5 0.0
09/09:00am 16.3 15.8 11.9 75 2.4 W 6 17 3 9 1021.8 1021.6 0.0
09/08:30am 14.8 14.0 11.2 79 1.9 NNW 6 11 3 6 1021.7 1021.5 0.0
09/08:00am 14.6 13.8 11.0 79 1.9 WSW 6 17 3 9 1021.6 1021.4 0.0
09/07:30am 14.4 13.0 11.0 80 1.8 SW 9 20 5 11 1021.3 1021.1 0.0
09/07:00am 14.2 12.5 11.2 82 1.6 SW 11 24 6 13 1021.2 1021.0 0.0
09/06:30am 14.0 12.3 11.2 83 1.5 SW 11 24 6 13 1020.9 1020.6 0.0
09/06:00am 14.1 11.7 11.3 83 1.5 SW 15 28 8 15 1020.7 1020.4 0.0
09/05:30am 14.2 12.6 11.4 83 1.5 SSW 11 32 6 17 1020.7 1020.4 0.0
09/05:00am 14.1 10.3 11.3 83 1.5 SSW 22 41 12 22 1020.3 1020.0 0.0
09/04:40am 14.1 9.1 11.1 82 1.6 SW 28 46 15 25 1020.2 1019.9 0.0
09/04:30am 14.3 9.8 11.3 82 1.6 SW 26 41 14 22 1020.4 1020.1 0.0
09/04:00am 14.4 9.9 11.4 82 1.6 SW 26 43 14 23 1020.4 1020.1 0.0
09/03:30am 14.5 9.3 11.7 83 1.5 SW 30 44 16 24 1020.3 1020.0 0.0
09/03:00am 14.6 10.8 12.3 86 1.3 SSW 24 50 13 27 1020.3 1020.0 0.0
09/02:30am 14.5 10.3 12.4 87 1.2 SW 26 41 14 22 1020.4 1020.1 0.0
09/02:00am 14.7 10.2 12.6 87 1.2 SW 28 50 15 27 1020.3 1020.0 0.0
09/01:30am 14.8 13.1 12.3 85 1.4 SW 13 37 7 20 1020.6 1020.3 0.0
09/01:00am 14.7 13.5 11.7 82 1.6 SW 9 30 5 16 1020.8 1020.5 0.0
09/12:30am 14.9 10.5 11.7 81 1.7 SW 26 50 14 27 1020.7 1020.4 0.0
09/12:00am 15.1 10.7 11.7 80 1.8 SW 26 52 14 28 1020.8 1020.5 0.0
 
Date/Time
EDT
Temp
°C
App
Temp
°C
Dew
Point
Rel
Hum
%
Delta-T
°C
Wind Press
QNH
hPa
Press
MSL
hPa
Rain
since 9 am
mm
Dir
 
Spd
km/h
Gust
km/h
Spd
kts
Gust
kts
08/11:31pm 15.3 10.6 11.9 80 1.9 SSW 28 56 15 30 1020.8 1020.5 0.0
08/11:30pm 15.3 11.0 11.9 80 1.9 SSW 26 56 14 30 1020.8 1020.5 0.0
08/11:00pm 15.4 11.1 12.0 80 1.9 SSW 26 52 14 28 1020.9 1020.6 0.0
08/10:30pm 15.4 8.7 12.2 81 1.8 SW 39 63 21 34 1020.5 1020.2 0.0
08/10:00pm 15.6 10.1 12.0 79 2.0 SSW 32 56 17 30 1020.2 1019.9 0.0
08/09:30pm 15.7 10.4 12.6 82 1.7 SW 32 56 17 30 1020.1 1019.8 0.0
08/09:00pm 15.8 9.8 12.0 78 2.1 SW 35 59 19 32 1019.3 1019.0 0.0
08/08:30pm 16.0 9.9 11.8 76 2.3 SW 35 65 19 35 1019.3 1019.0 0.0
08/08:00pm 16.3 10.4 11.2 72 2.8 SW 33 65 18 35 1018.6 1018.4 0.0
08/07:30pm 16.7 11.7 10.8 68 3.2 SW 28 61 15 33 1017.7 1017.5 0.0
08/07:00pm 17.0 11.2 11.5 70 3.0 SW 33 80 18 43 1017.6 1017.3 0.0
08/06:30pm 16.9 8.1 11.0 68 3.2 SW 48 72 26 39 1017.7 1017.5 0.0
08/06:00pm 17.2 9.0 11.7 70 3.0 SW 46 69 25 37 1017.7 1017.5 0.0
08/05:30pm 17.9 11.2 12.4 70 3.1 SW 39 57 21 31 1017.8 1017.6 0.0
08/05:05pm 18.5 12.0 11.8 65 3.7 SW 37 56 20 30 1017.9 1017.7 0.0
08/05:00pm 18.4 11.6 11.9 66 3.6 SW 39 54 21 29 1017.9 1017.7 0.0
08/04:38pm 18.5 11.3 11.8 65 3.7 SW 41 63 22 34 1017.8 1017.6 0.0
08/04:30pm 18.6 11.7 11.7 64 3.8 SW 39 54 21 29 1017.8 1017.6 0.0
08/04:12pm 18.5 12.1 12.0 66 3.6 SW 37 56 20 30 1017.8 1017.6 0.0
08/04:00pm 18.4 12.9 11.9 66 3.6 SW 32 46 17 25 1018.1 1017.9 0.0
08/03:30pm 18.1 13.0 13.0 72 2.9 SSW 32 50 17 27 1018.1 1017.9 0.0
08/03:00pm 17.9 13.2 11.9 68 3.3 SSW 28 46 15 25 1018.1 1017.9 0.0
08/02:30pm 17.6 12.7 12.7 73 2.8 SSW 30 54 16 29 1018.3 1018.1 0.0
08/02:00pm 17.7 12.4 12.6 72 2.9 SW 32 50 17 27 1018.4 1018.2 0.0
08/01:30pm 17.5 12.4 13.0 75 2.5 SW 32 52 17 28 1018.6 1018.4 0.0
08/01:00pm 17.9 13.4 12.6 71 3.0 SSW 28 50 15 27 1018.1 1017.9 0.0
08/12:48pm 18.2 15.9 12.9 71 3.0 S 17 48 9 26 1018.2 1018.0 0.0
08/12:30pm 18.1 13.7 13.0 72 2.9 SW 28 44 15 24 1018.4 1018.2 0.0
08/12:00pm 17.6 13.6 13.1 75 2.5 SW 26 44 14 24 1018.5 1018.3 0.0
08/11:30am 18.9 17.5 13.3 70 3.2 SW 13 28 7 15 1018.4 1018.2 0.0
08/11:00am 18.8 18.0 14.1 74 2.7 WSW 11 26 6 14 1018.6 1018.4 0.0
08/10:30am 18.2 16.1 13.7 75 2.6 SW 17 30 9 16 1018.6 1018.4 0.0
08/10:00am 18.4 17.1 13.7 74 2.7 WNW 13 26 7 14 1018.5 1018.3 0.0
08/09:30am 18.3 18.4 13.8 75 2.6 ESE 6 15 3 8 1018.9 1018.6 0.0
08/09:00am 17.9 17.9 13.6 76 2.5 ENE 6 17 3 9 1018.6 1018.4 0.0
08/08:30am 17.1 16.0 13.0 77 2.3 WSW 11 24 6 13 1018.4 1018.2 0.0
08/08:00am 16.5 14.6 13.0 80 2.0 SW 15 28 8 15 1018.3 1018.1 0.0
08/07:30am 16.0 12.6 12.6 80 1.9 SW 22 35 12 19 1018.0 1017.8 0.0
08/07:00am 15.9 13.0 13.0 83 1.6 SSW 20 35 11 19 1017.9 1017.7 0.0
08/06:30am 15.5 14.0 13.2 86 1.3 SSW 13 30 7 16 1017.7 1017.5 0.0
08/06:00am 16.1 15.6 15.0 93 0.6 SW 11 24 6 13 1017.4 1017.1 0.0
08/05:30am 16.3 16.6 15.0 92 0.8 WSW 7 20 4 11 1017.4 1017.1 0.0
08/05:00am 16.1 16.2 14.5 90 0.9 W 7 13 4 7 1017.2 1016.9 0.0
08/04:30am 16.2 16.3 14.4 89 1.0 WNW 7 9 4 5 1017.0 1016.7 0.0
08/04:00am 16.6 16.0 14.6 88 1.2 NW 11 13 6 7 1017.1 1016.8 0.0
08/03:30am 16.3 16.3 14.1 87 1.3 WNW 7 9 4 5 1017.3 1017.0 0.0
08/03:00am 16.3 16.2 14.0 86 1.3 NW 7 9 4 5 1017.4 1017.1 0.0
08/02:30am 16.2 16.3 13.9 86 1.3 WNW 6 7 3 4 1017.7 1017.5 0.0
08/02:00am 16.3 16.5 14.3 88 1.2 WSW 6 7 3 4 1017.9 1017.7 0.0
08/01:30am 16.4 17.0 14.2 87 1.3 NNW 4 6 2 3 1018.2 1018.0 0.0
08/01:00am 16.4 16.0 14.2 87 1.3 N 9 13 5 7 1018.4 1018.2 0.0
08/12:30am 16.4 15.1 13.7 84 1.5 NNE 13 15 7 8 1018.4 1018.2 0.0
08/12:00am 16.5 15.0 13.2 81 1.9 NE 13 17 7 9 1018.5 1018.3 0.0
 
Date/Time
EDT
Temp
°C
App
Temp
°C
Dew
Point
Rel
Hum
%
Delta-T
°C
Wind Press
QNH
hPa
Press
MSL
hPa
Rain
since 9 am
mm
Dir
 
Spd
km/h
Gust
km/h
Spd
kts
Gust
kts
07/11:30pm 16.5 14.5 12.8 79 2.1 NE 15 17 8 9 1018.6 1018.4 0.0
07/11:00pm 16.5 15.3 12.7 78 2.1 NE 11 17 6 9 1019.0 1018.7 0.0
07/10:30pm 16.2 16.0 13.5 84 1.5 NE 7 15 4 8 1018.9 1018.6 0.0
07/10:00pm 16.4 16.2 13.7 84 1.5 NE 7 11 4 6 1019.1 1018.8 0.0
07/09:30pm 16.4 16.2 13.5 83 1.6 ENE 7 15 4 8 1019.1 1018.8 0.0
07/09:00pm 16.3 16.7 13.8 85 1.4 ENE 4 15 2 8 1018.6 1018.4 0.0
07/08:30pm 16.3 16.0 13.4 83 1.6 ENE 7 17 4 9 1018.5 1018.3 0.0
07/08:00pm 16.3 16.2 13.2 82 1.7 ESE 6 20 3 11 1018.4 1018.2 0.0
07/07:30pm 16.5 16.3 13.6 83 1.7 ESE 7 17 4 9 1018.3 1018.1 0.0
07/07:00pm 16.6 15.7 13.7 83 1.7 ESE 11 19 6 10 1018.0 1017.8 0.0
07/06:30pm 17.0 17.0 14.1 83 1.7 E 7 15 4 8 1017.9 1017.7 0.0
07/06:00pm 17.1 16.3 14.0 82 1.8 E 11 20 6 11 1017.6 1017.3 0.0
07/05:30pm 17.8 17.4 14.1 79 2.1 E 9 20 5 11 1017.5 1017.2 0.0
07/05:00pm 17.7 16.7 14.6 82 1.8 ESE 13 20 7 11 1017.6 1017.3 0.0
07/04:30pm 18.0 17.7 14.5 80 2.0 ESE 9 15 5 8 1017.5 1017.2 0.0
07/04:00pm 19.0 19.2 15.7 81 2.0 SE 9 17 5 9 1017.5 1017.2 0.0
07/03:30pm 18.9 19.0 15.4 80 2.1 SE 9 13 5 7 1017.7 1017.5 0.0
07/03:00pm 19.0 18.5 15.9 82 1.9 SE 13 19 7 10 1018.0 1017.8 0.0
07/02:30pm 18.5 18.3 15.7 84 1.7 SSE 11 19 6 10 1018.2 1018.0 0.0
07/02:00pm 18.1 17.5 15.7 86 1.4 S 13 19 7 10 1018.5 1018.3 0.0
07/01:30pm 17.8 17.6 15.8 88 1.2 SSW 11 17 6 9 1018.5 1018.3 0.0
07/01:00pm 17.5 17.7 15.7 89 1.1 SSW 9 15 5 8 1018.6 1018.4 0.0
07/12:30pm 17.6 17.9 15.9 90 1.0 SW 9 13 5 7 1018.6 1018.4 0.0
07/12:00pm 16.9 16.7 15.8 93 0.7 SSW 11 15 6 8 1018.6 1018.4 0.0
07/11:30am 17.1 16.7 16.1 94 0.6 SSW 13 17 7 9 1018.7 1018.5 0.0
07/11:00am 16.9 16.5 16.3 96 0.4 SSW 13 17 7 9 1018.9 1018.6 0.0
07/10:30am 16.8 16.0 16.2 96 0.4 SSW 15 20 8 11 1018.7 1018.5 0.0
07/10:00am 16.1 13.7 15.5 96 0.4 SSW 22 30 12 16 1018.6 1018.4 0.0
07/09:30am 16.5 14.7 15.9 96 0.4 SW 20 33 11 18 1018.6 1018.4 0.0
07/09:00am 16.8 17.1 16.0 95 0.5 WSW 9 26 5 14 1018.4 1018.2 0.0
07/08:30am 16.5 17.2 15.7 95 0.5 WNW 6 19 3 10 1018.3 1018.1 0.0
07/08:00am 16.4 17.0 15.4 94 0.6 NNW 6 13 3 7 1018.2 1018.0 0.0
07/07:30am 16.4 16.5 15.4 94 0.6 SW 9 24 5 13 1018.1 1017.9 0.0
07/07:00am 16.5 16.6 15.4 93 0.6 WSW 9 22 5 12 1017.9 1017.7 0.0
07/06:30am 16.4 16.9 15.1 92 0.8 WNW 6 15 3 8 1017.7 1017.5 0.0
07/06:00am 16.4 16.9 14.9 91 0.9 W 6 11 3 6 1017.5 1017.2 0.0
07/05:30am 16.4 16.7 14.6 89 1.0 NW 6 15 3 8 1017.2 1016.9 0.0
07/05:00am 16.3 15.7 14.7 90 0.9 NW 11 13 6 7 1016.9 1016.6 0.0
07/04:30am 16.5 15.2 14.9 90 0.9 N 15 22 8 12 1016.7 1016.4 0.0
07/04:00am 16.8 16.0 15.2 90 0.9 N 13 20 7 11 1016.7 1016.4 0.0
07/03:30am 16.8 13.7 14.6 87 1.3 N 24 35 13 19 1016.8 1016.5 0.0
07/03:00am 16.9 13.2 15.1 89 1.1 NNE 28 35 15 19 1016.8 1016.5 0.0
07/02:30am 16.9 13.6 14.9 88 1.2 NNE 26 33 14 18 1017.1 1016.8 0.0
07/02:00am 16.9 13.2 14.9 88 1.2 NNE 28 32 15 17 1017.4 1017.1 0.0
07/01:30am 17.1 12.7 15.1 88 1.2 NNE 32 39 17 21 1017.6 1017.3 0.0
07/01:00am 17.3 11.5 14.9 86 1.4 NNE 39 46 21 25 1017.7 1017.5 0.0
07/12:30am 17.3 12.7 15.1 87 1.3 NNE 33 43 18 23 1018.1 1017.9 0.0
07/12:00am 17.3 12.8 15.3 88 1.2 NNE 33 43 18 23 1018.1 1017.9 0.0
 
Date/Time
EDT
Temp
°C
App
Temp
°C
Dew
Point
Rel
Hum
%
Delta-T
°C
Wind Press
QNH
hPa
Press
MSL
hPa
Rain
since 9 am
mm
Dir
 
Spd
km/h
Gust
km/h
Spd
kts
Gust
kts
06/11:30pm 17.3 13.0 15.5 89 1.1 NNE 32 43 17 23 1018.2 1018.0 0.0
06/11:00pm 17.3 13.0 15.5 89 1.1 NNE 32 41 17 22 1018.3 1018.1 0.0
06/10:30pm 17.3 13.1 15.6 90 1.0 NNE 32 44 17 24 1018.5 1018.3 0.0
06/10:00pm 17.3 13.2 16.0 92 0.8 NNE 32 41 17 22 1018.7 1018.5 0.0
06/09:30pm 17.2 13.2 16.1 93 0.7 NNE 32 39 17 21 1018.7 1018.5 0.0
06/09:00pm 17.2 14.3 16.1 93 0.7 NNE 26 35 14 19 1018.7 1018.5 0.0

Other Formats:

Comma delimited format used in spreadsheet applications
http://www.bom.gov.au/fwo/IDT60801/IDT60801.95986.axf

JavaScript Object Notation format (JSON) in row-major order
http://www.bom.gov.au/fwo/IDT60801/IDT60801.95986.json